Safford, AZ

10:53 PM MST on August 21, 2014 (GMT -0700)
Safford Regional | Change Station
CLOSE
Current Station
Airport
Location: Safford,
Elevation: 3176 ft
Nearby Weather Stations

Elev 3176 ft 32.86 °N, 109.64 °W | Updated 2 minutes ago

Mostly Cloudy
Mostly Cloudy
76 °F
Feels Like 76 °F
N
8
Wind Variable Wind from NW

Today
High -- | Low -- °F
--% Chance of Precip.
Yesterday
High -- | Low -- °F
Precip. -- in
5:46 AM 6:57 PM
Waning Crescent, 10% visible
Pressure 29.88 in
Visibility 10.0 miles
Clouds Scattered Clouds 10000 ft
Mostly Cloudy 12000 ft
Dew Point 58 °F
Humidity 54%
Rainfall 0.00 in
Snow Depth Not available.
UV 0 out of 12
Pollen 4.70 out of 12
Air Quality Not available.
Flu Activity Not available.
METAR KSAD 220551Z AUTO 32007KT 10SM SCT100 BKN120 24/14 A3003 RMK AO2 RAB13E29 SLP117 P0000 60000 T02440144 10283 20239 50008

More Conditions Fewer Conditions

Pressure 29.88 in
Visibility 10.0 miles
Clouds Scattered Clouds 10000 ft
Mostly Cloudy 12000 ft
Dew Point 58 °F
Humidity 54%
Rainfall 0.00 in
Snow Depth Not available.
UV 0 out of 12
Pollen 4.70 out of 12
Air Quality Not available.
Flu Activity Not available.
METAR KSAD 220551Z AUTO 32007KT 10SM SCT100 BKN120 24/14 A3003 RMK AO2 RAB13E29 SLP117 P0000 60000 T02440144 10283 20239 50008

More Conditions Fewer Conditions

10-Day Weather Forecast

Almanac

Astronomy

Aug. 21, 2014 Rise Set
Actual Time 5:46 AM MST 6:57 PM MST
Civil Twilight 5:20 AM MST 7:22 PM MST
Nautical Twilight 4:50 AM MST 7:53 PM MST
Astronomical Twilight 4:18 AM MST 8:24 PM MST
Moon 2:24 AM MST (8/21) 4:23 PM MST (8/21)
Length of Visible Light 14h 02m
Length of Day
13h 10m
Tomorrow will be 1m 51s shorter.
Waning Crescent, 10% of the Moon is Illuminated
Aug 22
Waning Crescent
Aug 25
New
Sep 2
First Quarter
Sep 8
Full
Sep 15
Last Quarter

Yesterday's Extremes

State Highs State Lows

Community

WunderPhotos

Upload Photos

1,746,131 photos uploaded!

Nearby

Snow Depth

Station Depth Elevation
Wildcat 0 in 7850 ft
Beaver Head 19 in 7990 ft
Coronado Trail 0 in 8400 ft
Maverick Fork 0 in 9200 ft
Workman Creek 1 in 6900 ft

Earthquake Activity

City Distance Mag. Time & Date
Lordsburg, New Mexico 39 miles 3.1 9:13 PM MST
2014-08-15
Minimum magnitude displayed is 2.5.

Coastal Water Temperatures

Place Temperature
No Stations Reporting

Nearby Weather Stations